Mc Elhattan, Pennsylvania
Current Conditions -  °F | °C
As of 10:54 AM on Monday 24 Nov 2014 (Local Time) from KIPT Reporting Station
Broken Clouds Broken Clouds  
Wind Chill: 65°   Ceiling: 6500
Heat Index: 65°   Visibility: 10mi
Dew Point: 53°   Wind: 8mph
Humidity: 65%   Direction: 170°S
Pressure: 29.52"   Gusts: 23mph
Location:  41.1494°N, 77.3657°W
Report Text: KIPT 241554Z 17007G20KT 10SM SCT028 BKN065 18/12 A2952 RMK AO2 PK WND 15035/1531 SLP997 T01830117
Loading
Personal Weather Stations






























Interactive Weather Map New forecast layout! Learn more

10-Day Weather Forecast

Advertisements
Track Severe Weather on mobile